sensor_id;sensor_type;location;lat;lon;timestamp;pressure;altitude;pressure_sealevel;temperature;humidity
63552;BME280;49698;48.072;7.800;2022-10-16T00:01:57;99216.44;;;14.64;97.24
63552;BME280;49698;48.072;7.800;2022-10-16T00:04:26;99210.22;;;14.64;97.23
63552;BME280;49698;48.072;7.800;2022-10-16T00:06:54;99213.72;;;14.64;97.06
63552;BME280;49698;48.072;7.800;2022-10-16T00:09:22;99220.41;;;14.67;97.11
63552;BME280;49698;48.072;7.800;2022-10-16T00:11:49;99217.69;;;14.67;96.97
63552;BME280;49698;48.072;7.800;2022-10-16T00:14:17;99217.69;;;14.67;97.04
63552;BME280;49698;48.072;7.800;2022-10-16T00:16:45;99226.94;;;14.66;96.98
63552;BME280;49698;48.072;7.800;2022-10-16T00:19:13;99223.09;;;14.67;97.17
63552;BME280;49698;48.072;7.800;2022-10-16T00:21:42;99222.81;;;14.68;97.04
63552;BME280;49698;48.072;7.800;2022-10-16T00:24:28;99224.72;;;14.68;97.07
63552;BME280;49698;48.072;7.800;2022-10-16T00:26:56;99225.81;;;14.67;97.12
63552;BME280;49698;48.072;7.800;2022-10-16T00:29:24;99227.91;;;14.70;97.05
63552;BME280;49698;48.072;7.800;2022-10-16T00:31:51;99223.78;;;14.73;96.99
63552;BME280;49698;48.072;7.800;2022-10-16T00:34:19;99226.16;;;14.74;96.89
63552;BME280;49698;48.072;7.800;2022-10-16T00:36:49;99225.06;;;14.75;96.78
63552;BME280;49698;48.072;7.800;2022-10-16T00:39:16;99229.34;;;14.76;96.63
63552;BME280;49698;48.072;7.800;2022-10-16T00:41:45;99229.03;;;14.78;96.73
63552;BME280;49698;48.072;7.800;2022-10-16T00:46:59;99223.94;;;14.76;96.84
63552;BME280;49698;48.072;7.800;2022-10-16T00:49:27;99233.97;;;14.76;96.97
63552;BME280;49698;48.072;7.800;2022-10-16T00:51:56;99235.38;;;14.73;97.16
63552;BME280;49698;48.072;7.800;2022-10-16T00:54:25;99230.59;;;14.70;97.03
63552;BME280;49698;48.072;7.800;2022-10-16T00:56:54;99236.00;;;14.70;97.24
63552;BME280;49698;48.072;7.800;2022-10-16T00:59:24;99236.81;;;14.71;97.22
63552;BME280;49698;48.072;7.800;2022-10-16T01:01:53;99238.41;;;14.72;97.12
63552;BME280;49698;48.072;7.800;2022-10-16T01:04:21;99237.59;;;14.71;97.27
63552;BME280;49698;48.072;7.800;2022-10-16T01:06:50;99256.84;;;14.70;97.30
63552;BME280;49698;48.072;7.800;2022-10-16T01:09:21;99263.06;;;14.70;97.08
63552;BME280;49698;48.072;7.800;2022-10-16T01:11:54;99257.66;;;14.70;97.26
63552;BME280;49698;48.072;7.800;2022-10-16T01:14:27;99258.44;;;14.71;97.41
63552;BME280;49698;48.072;7.800;2022-10-16T01:17:00;99265.78;;;14.70;97.36
63552;BME280;49698;48.072;7.800;2022-10-16T01:19:36;99265.31;;;14.68;97.46
63552;BME280;49698;48.072;7.800;2022-10-16T01:22:08;99259.88;;;14.68;97.46
63552;BME280;49698;48.072;7.800;2022-10-16T01:24:40;99260.50;;;14.65;97.48
63552;BME280;49698;48.072;7.800;2022-10-16T01:27:10;99257.31;;;14.63;97.59
63552;BME280;49698;48.072;7.800;2022-10-16T01:29:41;99261.13;;;14.62;97.51
63552;BME280;49698;48.072;7.800;2022-10-16T01:32:13;99263.84;;;14.62;97.51
63552;BME280;49698;48.072;7.800;2022-10-16T01:34:45;99265.75;;;14.61;97.63
63552;BME280;49698;48.072;7.800;2022-10-16T01:37:15;99264.94;;;14.61;97.52
63552;BME280;49698;48.072;7.800;2022-10-16T01:39:45;99261.75;;;14.59;97.61
63552;BME280;49698;48.072;7.800;2022-10-16T01:42:16;99245.50;;;14.59;97.64
63552;BME280;49698;48.072;7.800;2022-10-16T01:44:46;99250.94;;;14.59;97.61
63552;BME280;49698;48.072;7.800;2022-10-16T01:47:15;99250.94;;;14.59;97.43
63552;BME280;49698;48.072;7.800;2022-10-16T01:49:45;99242.03;;;14.58;97.57
63552;BME280;49698;48.072;7.800;2022-10-16T01:52:14;99240.09;;;14.59;97.44
63552;BME280;49698;48.072;7.800;2022-10-16T01:54:44;99233.91;;;14.58;97.76
63552;BME280;49698;48.072;7.800;2022-10-16T01:57:14;99243.94;;;14.58;97.46
63552;BME280;49698;48.072;7.800;2022-10-16T01:59:46;99240.25;;;14.54;97.59
63552;BME280;49698;48.072;7.800;2022-10-16T02:02:15;99235.97;;;14.53;97.70
63552;BME280;49698;48.072;7.800;2022-10-16T02:04:45;99238.97;;;14.51;97.81
63552;BME280;49698;48.072;7.800;2022-10-16T02:07:13;99255.97;;;14.52;97.75
63552;BME280;49698;48.072;7.800;2022-10-16T02:09:41;99250.69;;;14.47;98.12
63552;BME280;49698;48.072;7.800;2022-10-16T02:12:10;99244.31;;;14.42;98.25
63552;BME280;49698;48.072;7.800;2022-10-16T02:14:39;99247.97;;;14.38;98.40
63552;BME280;49698;48.072;7.800;2022-10-16T02:17:14;99243.97;;;14.35;98.54
63552;BME280;49698;48.072;7.800;2022-10-16T02:19:42;99245.88;;;14.35;98.70
63552;BME280;49698;48.072;7.800;2022-10-16T02:22:14;99249.06;;;14.37;98.63
63552;BME280;49698;48.072;7.800;2022-10-16T02:24:46;99252.56;;;14.37;98.66
63552;BME280;49698;48.072;7.800;2022-10-16T02:27:23;99253.97;;;14.35;98.54
63552;BME280;49698;48.072;7.800;2022-10-16T02:29:53;99245.69;;;14.31;98.52
63552;BME280;49698;48.072;7.800;2022-10-16T02:32:27;99247.94;;;14.29;98.97
63552;BME280;49698;48.072;7.800;2022-10-16T02:34:57;99246.31;;;14.28;98.71
63552;BME280;49698;48.072;7.800;2022-10-16T02:37:26;99254.91;;;14.30;98.75
63552;BME280;49698;48.072;7.800;2022-10-16T02:39:55;99247.13;;;14.29;98.84
63552;BME280;49698;48.072;7.800;2022-10-16T02:42:27;99254.41;;;14.28;98.81
63552;BME280;49698;48.072;7.800;2022-10-16T02:44:55;99255.25;;;14.29;98.78
63552;BME280;49698;48.072;7.800;2022-10-16T02:47:23;99255.25;;;14.29;98.81
63552;BME280;49698;48.072;7.800;2022-10-16T02:49:52;99257.63;;;14.30;98.76
63552;BME280;49698;48.072;7.800;2022-10-16T02:52:20;99261.91;;;14.31;98.61
63552;BME280;49698;48.072;7.800;2022-10-16T02:54:48;99264.94;;;14.30;98.54
63552;BME280;49698;48.072;7.800;2022-10-16T02:57:16;99264.44;;;14.28;98.58
63552;BME280;49698;48.072;7.800;2022-10-16T02:59:44;99258.41;;;14.31;98.53
63552;BME280;49698;48.072;7.800;2022-10-16T03:02:12;99265.72;;;14.30;98.58
63552;BME280;49698;48.072;7.800;2022-10-16T03:04:40;99261.91;;;14.31;98.53
63552;BME280;49698;48.072;7.800;2022-10-16T03:07:09;99257.31;;;14.32;98.49
63552;BME280;49698;48.072;7.800;2022-10-16T03:09:37;99263.03;;;14.30;98.55
63552;BME280;49698;48.072;7.800;2022-10-16T03:12:05;99260.94;;;14.27;98.76
63552;BME280;49698;48.072;7.800;2022-10-16T03:14:33;99256.66;;;14.26;98.63
63552;BME280;49698;48.072;7.800;2022-10-16T03:17:01;99263.19;;;14.25;98.94
63552;BME280;49698;48.072;7.800;2022-10-16T03:19:29;99252.38;;;14.25;98.79
63552;BME280;49698;48.072;7.800;2022-10-16T03:21:56;99249.94;;;14.24;98.87
63552;BME280;49698;48.072;7.800;2022-10-16T03:24:26;99241.03;;;14.23;98.81
63552;BME280;49698;48.072;7.800;2022-10-16T03:26:53;99244.88;;;14.22;99.13
63552;BME280;49698;48.072;7.800;2022-10-16T03:29:21;99244.38;;;14.20;99.14
63552;BME280;49698;48.072;7.800;2022-10-16T03:31:49;99248.69;;;14.21;99.03
63552;BME280;49698;48.072;7.800;2022-10-16T03:34:17;99256.78;;;14.21;99.28
63552;BME280;49698;48.072;7.800;2022-10-16T03:36:45;99257.88;;;14.20;99.17
63552;BME280;49698;48.072;7.800;2022-10-16T03:39:13;99264.09;;;14.20;99.16
63552;BME280;49698;48.072;7.800;2022-10-16T03:41:42;99260.59;;;14.20;99.25
63552;BME280;49698;48.072;7.800;2022-10-16T03:44:10;99263.78;;;14.22;98.89
63552;BME280;49698;48.072;7.800;2022-10-16T03:46:38;99257.59;;;14.22;98.88
63552;BME280;49698;48.072;7.800;2022-10-16T03:49:06;99266.50;;;14.22;99.04
63552;BME280;49698;48.072;7.800;2022-10-16T03:51:34;99262.19;;;14.21;98.96
63552;BME280;49698;48.072;7.800;2022-10-16T03:54:02;99264.09;;;14.20;99.03
63552;BME280;49698;48.072;7.800;2022-10-16T03:56:29;99266.00;;;14.20;99.17
63552;BME280;49698;48.072;7.800;2022-10-16T03:58:58;99266.00;;;14.20;99.04
63552;BME280;49698;48.072;7.800;2022-10-16T04:01:26;99263.59;;;14.18;99.17
63552;BME280;49698;48.072;7.800;2022-10-16T04:03:54;99253.41;;;14.15;99.10
63552;BME280;49698;48.072;7.800;2022-10-16T04:06:22;99262.31;;;14.16;99.38
63552;BME280;49698;48.072;7.800;2022-10-16T04:08:50;99263.44;;;14.15;99.19
63552;BME280;49698;48.072;7.800;2022-10-16T04:11:18;99263.75;;;14.13;99.24
63552;BME280;49698;48.072;7.800;2022-10-16T04:13:45;99259.13;;;14.14;99.41
63552;BME280;49698;48.072;7.800;2022-10-16T04:16:15;99265.63;;;14.13;99.28
63552;BME280;49698;48.072;7.800;2022-10-16T04:18:43;99257.84;;;14.11;99.31
63552;BME280;49698;48.072;7.800;2022-10-16T04:21:10;99263.25;;;14.11;99.48
63552;BME280;49698;48.072;7.800;2022-10-16T04:23:38;99258.63;;;14.12;99.44
63552;BME280;49698;48.072;7.800;2022-10-16T04:26:06;99259.44;;;14.12;99.39
63552;BME280;49698;48.072;7.800;2022-10-16T04:28:34;99271.03;;;14.13;99.52
63552;BME280;49698;48.072;7.800;2022-10-16T04:31:03;99271.84;;;14.13;99.51
63552;BME280;49698;48.072;7.800;2022-10-16T04:33:32;99272.66;;;14.14;99.59
63552;BME280;49698;48.072;7.800;2022-10-16T04:36:00;99259.94;;;14.14;99.35
63552;BME280;49698;48.072;7.800;2022-10-16T04:38:29;99265.81;;;14.16;99.35
63552;BME280;49698;48.072;7.800;2022-10-16T04:40:57;99266.59;;;14.17;99.43
63552;BME280;49698;48.072;7.800;2022-10-16T04:43:26;99263.44;;;14.15;99.47
63552;BME280;49698;48.072;7.800;2022-10-16T04:45:54;99268.50;;;14.16;99.53
63552;BME280;49698;48.072;7.800;2022-10-16T04:48:23;99268.22;;;14.18;99.58
63552;BME280;49698;48.072;7.800;2022-10-16T04:50:52;99266.59;;;14.17;99.26
63552;BME280;49698;48.072;7.800;2022-10-16T04:53:20;99255.00;;;14.16;99.45
63552;BME280;49698;48.072;7.800;2022-10-16T04:55:49;99269.63;;;14.15;99.32
63552;BME280;49698;48.072;7.800;2022-10-16T04:58:17;99272.94;;;14.12;99.55
63552;BME280;49698;48.072;7.800;2022-10-16T05:00:45;99276.75;;;14.11;99.46
63552;BME280;49698;48.072;7.800;2022-10-16T05:03:13;99271.34;;;14.11;99.58
63552;BME280;49698;48.072;7.800;2022-10-16T05:05:42;99283.28;;;14.10;99.75
63552;BME280;49698;48.072;7.800;2022-10-16T05:08:12;99281.38;;;14.11;99.69
63552;BME280;49698;48.072;7.800;2022-10-16T05:10:40;99294.09;;;14.10;99.68
63552;BME280;49698;48.072;7.800;2022-10-16T05:13:08;99299.50;;;14.10;99.72
63552;BME280;49698;48.072;7.800;2022-10-16T05:15:37;99294.09;;;14.10;99.60
63552;BME280;49698;48.072;7.800;2022-10-16T05:18:04;99298.88;;;14.13;99.67
63552;BME280;49698;48.072;7.800;2022-10-16T05:20:32;99296.34;;;14.17;99.60
63552;BME280;49698;48.072;7.800;2022-10-16T05:23:00;99298.75;;;14.18;99.45
63552;BME280;49698;48.072;7.800;2022-10-16T05:25:29;99299.53;;;14.19;99.49
63552;BME280;49698;48.072;7.800;2022-10-16T05:27:57;99305.75;;;14.19;99.50
63552;BME280;49698;48.072;7.800;2022-10-16T05:30:25;99298.44;;;14.20;99.17
63552;BME280;49698;48.072;7.800;2022-10-16T05:32:53;99292.72;;;14.22;99.19
63552;BME280;49698;48.072;7.800;2022-10-16T05:35:21;99293.53;;;14.22;99.18
63552;BME280;49698;48.072;7.800;2022-10-16T05:37:49;99288.91;;;14.23;99.07
63552;BME280;49698;48.072;7.800;2022-10-16T05:40:17;99289.72;;;14.23;99.18
63552;BME280;49698;48.072;7.800;2022-10-16T05:42:46;99296.41;;;14.26;99.24
63552;BME280;49698;48.072;7.800;2022-10-16T05:45:14;99301.50;;;14.27;99.10
63552;BME280;49698;48.072;7.800;2022-10-16T05:47:42;99304.19;;;14.27;99.08
63552;BME280;49698;48.072;7.800;2022-10-16T05:50:10;99309.31;;;14.29;98.93
63552;BME280;49698;48.072;7.800;2022-10-16T05:52:38;99312.81;;;14.29;98.96
63552;BME280;49698;48.072;7.800;2022-10-16T05:55:06;99305.78;;;14.28;99.06
63552;BME280;49698;48.072;7.800;2022-10-16T05:57:34;99309.31;;;14.29;98.98
63552;BME280;49698;48.072;7.800;2022-10-16T06:00:04;99305.78;;;14.28;99.13
63552;BME280;49698;48.072;7.800;2022-10-16T06:02:38;99314.41;;;14.30;98.85
63552;BME280;49698;48.072;7.800;2022-10-16T06:05:06;99311.38;;;14.32;99.09
63552;BME280;49698;48.072;7.800;2022-10-16T06:07:34;99309.47;;;14.32;98.91
63552;BME280;49698;48.072;7.800;2022-10-16T06:10:02;99320.00;;;14.34;98.87
63552;BME280;49698;48.072;7.800;2022-10-16T06:12:30;99326.19;;;14.34;99.00
63552;BME280;49698;48.072;7.800;2022-10-16T06:14:58;99327.78;;;14.35;98.86
63552;BME280;49698;48.072;7.800;2022-10-16T06:17:28;99340.19;;;14.36;98.99
63552;BME280;49698;48.072;7.800;2022-10-16T06:19:55;99346.41;;;14.37;98.92
63552;BME280;49698;48.072;7.800;2022-10-16T06:22:23;99352.44;;;14.34;99.10
63552;BME280;49698;48.072;7.800;2022-10-16T06:24:51;99355.44;;;14.32;99.20
63552;BME280;49698;48.072;7.800;2022-10-16T06:27:19;99363.53;;;14.32;99.07
63552;BME280;49698;48.072;7.800;2022-10-16T06:29:47;99366.56;;;14.31;99.18
63552;BME280;49698;48.072;7.800;2022-10-16T06:32:14;99376.28;;;14.32;99.11
63552;BME280;49698;48.072;7.800;2022-10-16T06:34:44;99379.78;;;14.32;99.02
63552;BME280;49698;48.072;7.800;2022-10-16T06:37:12;99382.47;;;14.32;98.87
63552;BME280;49698;48.072;7.800;2022-10-16T06:39:39;99389.50;;;14.33;99.06
63552;BME280;49698;48.072;7.800;2022-10-16T06:42:07;99395.69;;;14.34;99.16
63552;BME280;49698;48.072;7.800;2022-10-16T06:44:35;99374.88;;;14.34;99.07
63552;BME280;49698;48.072;7.800;2022-10-16T06:47:03;99367.22;;;14.36;98.93
63552;BME280;49698;48.072;7.800;2022-10-16T06:49:31;99378.03;;;14.36;99.09
63552;BME280;49698;48.072;7.800;2022-10-16T06:52:00;99379.66;;;14.37;98.95
63552;BME280;49698;48.072;7.800;2022-10-16T06:54:28;99387.16;;;14.40;99.04
63552;BME280;49698;48.072;7.800;2022-10-16T06:56:57;99397.34;;;14.43;98.75
63552;BME280;49698;48.072;7.800;2022-10-16T06:59:26;99415.19;;;14.44;98.92
63552;BME280;49698;48.072;7.800;2022-10-16T07:01:54;99414.88;;;14.46;98.75
63552;BME280;49698;48.072;7.800;2022-10-16T07:04:22;99410.75;;;14.49;98.83
63552;BME280;49698;48.072;7.800;2022-10-16T07:06:50;99410.47;;;14.50;98.72
63552;BME280;49698;48.072;7.800;2022-10-16T07:09:19;99410.66;;;14.54;98.71
63552;BME280;49698;48.072;7.800;2022-10-16T07:11:47;99406.22;;;14.58;98.51
63552;BME280;49698;48.072;7.800;2022-10-16T07:14:16;99405.63;;;14.61;98.58
63552;BME280;49698;48.072;7.800;2022-10-16T07:16:44;99406.88;;;14.63;98.50
63552;BME280;49698;48.072;7.800;2022-10-16T07:19:12;99416.81;;;14.68;98.30
63552;BME280;49698;48.072;7.800;2022-10-16T07:21:41;99425.38;;;14.70;98.02
63552;BME280;49698;48.072;7.800;2022-10-16T07:24:11;99425.28;;;14.75;97.86
63552;BME280;49698;48.072;7.800;2022-10-16T07:26:41;99430.56;;;14.80;97.96
63552;BME280;49698;48.072;7.800;2022-10-16T07:29:11;99427.72;;;14.85;97.69
63552;BME280;49698;48.072;7.800;2022-10-16T07:31:40;99435.69;;;14.90;97.39
63552;BME280;49698;48.072;7.800;2022-10-16T07:34:08;99440.47;;;14.93;97.13
63552;BME280;49698;48.072;7.800;2022-10-16T07:36:36;99451.50;;;14.97;97.14
63552;BME280;49698;48.072;7.800;2022-10-16T07:39:03;99456.28;;;15.00;96.87
63552;BME280;49698;48.072;7.800;2022-10-16T07:41:31;99449.47;;;15.03;97.00
63552;BME280;49698;48.072;7.800;2022-10-16T07:44:04;99458.06;;;15.05;96.75
63552;BME280;49698;48.072;7.800;2022-10-16T07:46:33;99455.84;;;15.07;96.70
63552;BME280;49698;48.072;7.800;2022-10-16T07:49:02;99458.25;;;15.08;96.68
63552;BME280;49698;48.072;7.800;2022-10-16T07:51:30;99453.78;;;15.12;96.72
63552;BME280;49698;48.072;7.800;2022-10-16T07:53:58;99455.56;;;15.17;96.61
63552;BME280;49698;48.072;7.800;2022-10-16T07:56:26;99472.78;;;15.21;96.27
63552;BME280;49698;48.072;7.800;2022-10-16T07:58:54;99458.63;;;15.24;96.11
63552;BME280;49698;48.072;7.800;2022-10-16T08:01:24;99475.72;;;15.33;96.15
63552;BME280;49698;48.072;7.800;2022-10-16T08:03:52;99478.47;;;15.42;95.62
63552;BME280;49698;48.072;7.800;2022-10-16T08:06:21;99478.50;;;15.51;95.28
63552;BME280;49698;48.072;7.800;2022-10-16T08:08:50;99472.31;;;15.59;94.92
63552;BME280;49698;48.072;7.800;2022-10-16T08:11:18;99477.31;;;15.65;94.59
63552;BME280;49698;48.072;7.800;2022-10-16T08:13:46;99478.72;;;15.72;94.35
63552;BME280;49698;48.072;7.800;2022-10-16T08:16:13;99477.81;;;15.76;94.44
63552;BME280;49698;48.072;7.800;2022-10-16T08:18:42;99471.75;;;15.79;94.16
63552;BME280;49698;48.072;7.800;2022-10-16T08:21:12;99473.81;;;15.82;94.09
63552;BME280;49698;48.072;7.800;2022-10-16T08:23:42;99471.28;;;15.86;93.94
63552;BME280;49698;48.072;7.800;2022-10-16T08:26:10;99467.63;;;15.90;93.84
63552;BME280;49698;48.072;7.800;2022-10-16T08:28:38;99468.59;;;15.95;93.72
63552;BME280;49698;48.072;7.800;2022-10-16T08:31:07;99480.38;;;15.99;93.57
63552;BME280;49698;48.072;7.800;2022-10-16T08:33:35;99468.91;;;16.02;93.45
63552;BME280;49698;48.072;7.800;2022-10-16T08:36:05;99479.75;;;16.02;93.35
63552;BME280;49698;48.072;7.800;2022-10-16T08:38:33;99467.16;;;16.06;93.30
63552;BME280;49698;48.072;7.800;2022-10-16T08:41:15;99466.06;;;16.07;93.32
63552;BME280;49698;48.072;7.800;2022-10-16T08:43:52;99479.13;;;16.05;93.50
63552;BME280;49698;48.072;7.800;2022-10-16T08:46:26;99472.28;;;16.07;93.44
63552;BME280;49698;48.072;7.800;2022-10-16T08:49:01;99480.25;;;16.12;93.33
63552;BME280;49698;48.072;7.800;2022-10-16T08:51:31;99485.22;;;16.19;93.07
63552;BME280;49698;48.072;7.800;2022-10-16T08:54:01;99504.03;;;16.24;92.85
63552;BME280;49698;48.072;7.800;2022-10-16T08:56:30;99496.06;;;16.28;92.77
63552;BME280;49698;48.072;7.800;2022-10-16T08:58:59;99488.41;;;16.30;92.91
63552;BME280;49698;48.072;7.800;2022-10-16T09:01:32;99491.28;;;16.33;92.84
63552;BME280;49698;48.072;7.800;2022-10-16T09:04:11;99484.44;;;16.36;92.88
63552;BME280;49698;48.072;7.800;2022-10-16T09:06:45;99485.88;;;16.42;92.67
63552;BME280;49698;48.072;7.800;2022-10-16T09:09:20;99480.59;;;16.46;92.44
63552;BME280;49698;48.072;7.800;2022-10-16T09:11:52;99482.03;;;16.52;92.35
63552;BME280;49698;48.072;7.800;2022-10-16T09:14:38;99490.50;;;16.59;91.97
63552;BME280;49698;48.072;7.800;2022-10-16T09:17:14;99491.28;;;16.68;91.84
63552;BME280;49698;48.072;7.800;2022-10-16T09:19:49;99496.75;;;16.77;91.44
63552;BME280;49698;48.072;7.800;2022-10-16T09:22:20;99503.28;;;16.84;91.07
63552;BME280;49698;48.072;7.800;2022-10-16T09:24:50;99509.94;;;16.96;90.68
63552;BME280;49698;48.072;7.800;2022-10-16T09:27:18;99520.28;;;17.20;89.71
63552;BME280;49698;48.072;7.800;2022-10-16T09:29:46;99515.06;;;17.53;88.52
63552;BME280;49698;48.072;7.800;2022-10-16T09:32:14;99517.53;;;17.75;87.39
63552;BME280;49698;48.072;7.800;2022-10-16T09:34:43;99525.16;;;17.91;86.60
63552;BME280;49698;48.072;7.800;2022-10-16T09:37:14;99523.03;;;17.96;86.12
63552;BME280;49698;48.072;7.800;2022-10-16T09:39:46;99533.25;;;17.99;85.97
63552;BME280;49698;48.072;7.800;2022-10-16T09:42:15;99523.44;;;18.07;85.82
63552;BME280;49698;48.072;7.800;2022-10-16T09:44:46;99526.09;;;18.16;85.31
63552;BME280;49698;48.072;7.800;2022-10-16T09:47:15;99516.28;;;18.23;84.86
63552;BME280;49698;48.072;7.800;2022-10-16T09:49:50;99520.91;;;18.31;84.51
63552;BME280;49698;48.072;7.800;2022-10-16T09:52:18;99512.97;;;18.39;84.26
63552;BME280;49698;48.072;7.800;2022-10-16T09:54:51;99513.72;;;18.48;83.82
63552;BME280;49698;48.072;7.800;2022-10-16T09:57:20;99512.38;;;18.54;83.26
63552;BME280;49698;48.072;7.800;2022-10-16T09:59:48;99516.16;;;18.62;82.99
63552;BME280;49698;48.072;7.800;2022-10-16T10:02:17;99519.94;;;18.69;82.93
63552;BME280;49698;48.072;7.800;2022-10-16T10:04:48;99521.16;;;18.80;82.56
63552;BME280;49698;48.072;7.800;2022-10-16T10:07:17;99517.69;;;18.92;81.97
63552;BME280;49698;48.072;7.800;2022-10-16T10:09:46;99514.19;;;19.04;81.59
63552;BME280;49698;48.072;7.800;2022-10-16T10:12:19;99511.06;;;19.14;81.14
63552;BME280;49698;48.072;7.800;2022-10-16T10:14:48;99510.63;;;19.24;81.06
63552;BME280;49698;48.072;7.800;2022-10-16T10:17:17;99514.38;;;19.32;80.72
63552;BME280;49698;48.072;7.800;2022-10-16T10:19:47;99511.88;;;19.39;80.61
63552;BME280;49698;48.072;7.800;2022-10-16T10:22:22;99516.78;;;19.46;80.77
63552;BME280;49698;48.072;7.800;2022-10-16T10:24:59;99520.09;;;19.51;80.42
63552;BME280;49698;48.072;7.800;2022-10-16T10:27:32;99521.09;;;19.59;80.06
63552;BME280;49698;48.072;7.800;2022-10-16T10:30:05;99520.56;;;19.66;79.98
63552;BME280;49698;48.072;7.800;2022-10-16T10:32:37;99518.44;;;19.71;79.91
63552;BME280;49698;48.072;7.800;2022-10-16T10:35:11;99513.19;;;19.78;79.90
63552;BME280;49698;48.072;7.800;2022-10-16T10:37:43;99514.19;;;19.86;79.51
63552;BME280;49698;48.072;7.800;2022-10-16T10:40:17;99511.81;;;19.97;79.23
63552;BME280;49698;48.072;7.800;2022-10-16T10:42:53;99512.03;;;20.04;79.09
63552;BME280;49698;48.072;7.800;2022-10-16T10:45:26;99522.03;;;20.12;79.01
63552;BME280;49698;48.072;7.800;2022-10-16T10:50:41;99518.47;;;20.24;79.00
63552;BME280;49698;48.072;7.800;2022-10-16T10:53:14;99516.22;;;20.26;79.33
63552;BME280;49698;48.072;7.800;2022-10-16T10:55:47;99512.69;;;20.25;79.31
63552;BME280;49698;48.072;7.800;2022-10-16T10:58:24;99514.72;;;20.28;79.22
63552;BME280;49698;48.072;7.800;2022-10-16T11:00:57;99517.56;;;20.32;79.24
63552;BME280;49698;48.072;7.800;2022-10-16T11:03:32;99513.34;;;20.35;79.33
63552;BME280;49698;48.072;7.800;2022-10-16T11:06:02;99514.94;;;20.36;79.33
63552;BME280;49698;48.072;7.800;2022-10-16T11:08:32;99515.03;;;20.39;79.29
63552;BME280;49698;48.072;7.800;2022-10-16T11:11:03;99511.25;;;20.44;79.13
63552;BME280;49698;48.072;7.800;2022-10-16T11:13:34;99510.59;;;20.47;79.00
63552;BME280;49698;48.072;7.800;2022-10-16T11:16:06;99512.41;;;20.55;78.64
63552;BME280;49698;48.072;7.800;2022-10-16T11:18:39;99500.09;;;20.61;78.38
63552;BME280;49698;48.072;7.800;2022-10-16T11:21:10;99508.50;;;20.68;78.02
63552;BME280;49698;48.072;7.800;2022-10-16T11:23:41;99503.25;;;20.75;77.68
63552;BME280;49698;48.072;7.800;2022-10-16T11:26:11;99502.97;;;20.81;77.69
63552;BME280;49698;48.072;7.800;2022-10-16T11:28:43;99507.03;;;20.87;77.30
63552;BME280;49698;48.072;7.800;2022-10-16T11:31:13;99506.34;;;20.90;77.04
63552;BME280;49698;48.072;7.800;2022-10-16T11:33:44;99504.69;;;21.01;76.81
63552;BME280;49698;48.072;7.800;2022-10-16T11:36:15;99500.31;;;21.12;76.39
63552;BME280;49698;48.072;7.800;2022-10-16T11:38:48;99497.06;;;21.22;75.83
63552;BME280;49698;48.072;7.800;2022-10-16T11:41:22;99505.22;;;21.35;75.51
63552;BME280;49698;48.072;7.800;2022-10-16T11:43:55;99490.13;;;21.41;75.07
63552;BME280;49698;48.072;7.800;2022-10-16T11:46:26;99493.47;;;21.50;74.73
63552;BME280;49698;48.072;7.800;2022-10-16T11:48:56;99495.66;;;21.60;74.28
63552;BME280;49698;48.072;7.800;2022-10-16T11:51:25;99490.38;;;21.67;73.82
63552;BME280;49698;48.072;7.800;2022-10-16T11:53:58;99479.69;;;21.78;73.17
63552;BME280;49698;48.072;7.800;2022-10-16T11:56:28;99477.38;;;21.96;72.23
63552;BME280;49698;48.072;7.800;2022-10-16T11:59:00;99485.19;;;22.13;70.70
63552;BME280;49698;48.072;7.800;2022-10-16T12:01:31;99482.63;;;22.20;69.93
63552;BME280;49698;48.072;7.800;2022-10-16T12:04:05;99479.59;;;22.26;69.70
63552;BME280;49698;48.072;7.800;2022-10-16T12:06:35;99481.59;;;22.29;69.18
63552;BME280;49698;48.072;7.800;2022-10-16T12:09:05;99476.22;;;22.32;68.51
63552;BME280;49698;48.072;7.800;2022-10-16T12:11:34;99473.53;;;22.36;68.28
63552;BME280;49698;48.072;7.800;2022-10-16T12:14:17;99473.53;;;22.36;68.40
63552;BME280;49698;48.072;7.800;2022-10-16T12:16:53;99470.34;;;22.34;68.58
63552;BME280;49698;48.072;7.800;2022-10-16T12:19:21;99466.84;;;22.33;68.51
63552;BME280;49698;48.072;7.800;2022-10-16T12:21:50;99469.56;;;22.33;68.53
63552;BME280;49698;48.072;7.800;2022-10-16T12:24:26;99474.72;;;22.35;68.50
63552;BME280;49698;48.072;7.800;2022-10-16T12:26:56;99473.19;;;22.37;68.25
63552;BME280;49698;48.072;7.800;2022-10-16T12:29:29;99470.88;;;22.39;68.22
63552;BME280;49698;48.072;7.800;2022-10-16T12:31:58;99469.78;;;22.44;67.87
63552;BME280;49698;48.072;7.800;2022-10-16T12:34:27;99464.09;;;22.53;67.62
63552;BME280;49698;48.072;7.800;2022-10-16T12:36:55;99461.19;;;22.65;67.32
63552;BME280;49698;48.072;7.800;2022-10-16T12:39:35;99459.03;;;22.74;66.51
63552;BME280;49698;48.072;7.800;2022-10-16T12:42:05;99456.78;;;22.80;65.96
63552;BME280;49698;48.072;7.800;2022-10-16T12:44:35;99452.22;;;22.87;65.30
63552;BME280;49698;48.072;7.800;2022-10-16T12:47:03;99446.19;;;22.98;64.57
63552;BME280;49698;48.072;7.800;2022-10-16T12:49:36;99452.22;;;23.07;64.05
63552;BME280;49698;48.072;7.800;2022-10-16T12:54:47;99452.00;;;23.15;63.17
63552;BME280;49698;48.072;7.800;2022-10-16T12:57:24;99450.81;;;23.16;62.99
63552;BME280;49698;48.072;7.800;2022-10-16T13:00:02;99450.50;;;23.22;62.70
63552;BME280;49698;48.072;7.800;2022-10-16T13:02:54;99447.44;;;23.27;62.57
63552;BME280;49698;48.072;7.800;2022-10-16T13:05:29;99443.25;;;23.33;62.21
63552;BME280;49698;48.072;7.800;2022-10-16T13:08:13;99446.84;;;23.37;61.86
63552;BME280;49698;48.072;7.800;2022-10-16T13:10:51;99436.59;;;23.34;61.97
63552;BME280;49698;48.072;7.800;2022-10-16T13:13:29;99440.88;;;23.31;62.13
63552;BME280;49698;48.072;7.800;2022-10-16T13:16:04;99440.06;;;23.31;61.96
63552;BME280;49698;48.072;7.800;2022-10-16T13:18:39;99443.56;;;23.28;61.82
63552;BME280;49698;48.072;7.800;2022-10-16T13:21:14;99432.59;;;23.28;61.18
63552;BME280;49698;48.072;7.800;2022-10-16T13:23:48;99434.19;;;23.29;61.22